Embsay, United Kingdom
Current Conditions -  °F | °C
As of 9:50 PM on Saturday 22 Nov 2014 (Local Time) from EGNM Reporting Station
Few Clouds Few Clouds  
Wind Chill:   Ceiling: Unl
Heat Index:   Visibility: 6mi
Dew Point:   Wind: 9mph
Humidity: 93%   Direction: 260°W
Pressure: 29.94"   Gusts: NA
Location:  53.98°N, 1.99°W
Report Text: EGNM 222150Z 26008KT 9999 FEW040 09/08 Q1014
Loading
Personal Weather Stations






























Interactive Weather Map New forecast layout! Learn more

10-Day Weather Forecast

Advertisements
Track Severe Weather on mobile